Time;durP1;ratioP1;P1;durP2;ratioP2;P2;SDS_P1;SDS_P2;PMS_P1;PMS_P2;Temp;Humidity;BMP_temperature;BMP_pressure;BME280_temperature;BME280_humidity;BME280_pressure;Samples;Min_cycle;Max_cycle;Signal;HPM_P1;HPM_P2
2021/12/12 00:00:16;;;;;;;22.27;9.13;;;;;;;4.94;83.57;101986.88;5024826;28;20075;-71
2021/12/12 00:03:01;;;;;;;30.13;8.15;;;;;;;4.94;83.65;101992.09;5025073;28;20427;-71
2021/12/12 00:05:41;;;;;;;23.42;8.20;;;;;;;4.93;83.72;101990.31;5024916;28;20041;-72
2021/12/12 00:08:07;;;;;;;21.85;7.45;;;;;;;4.91;83.92;101987.69;4990148;28;20137;-70
2021/12/12 00:10:35;;;;;;;35.30;8.77;;;;;;;4.92;83.87;101983.34;5004722;28;20101;-70
2021/12/12 00:13:08;;;;;;;24.27;8.35;;;;;;;4.92;83.93;101972.91;5003690;28;20018;-70
2021/12/12 00:15:33;;;;;;;22.08;7.50;;;;;;;4.92;83.85;101972.91;5005406;28;20034;-68
2021/12/12 00:18:00;;;;;;;22.23;8.85;;;;;;;4.91;83.95;101965.94;5014404;28;20024;-69
2021/12/12 00:20:27;;;;;;;21.95;8.20;;;;;;;4.92;83.87;101949.41;5027082;28;20056;-68
2021/12/12 00:22:59;;;;;;;26.05;8.63;;;;;;;4.94;83.85;101955.53;5043532;28;20443;-69
2021/12/12 00:25:26;;;;;;;28.23;8.57;;;;;;;4.89;84.04;101952.88;5042235;28;20104;-69
2021/12/12 00:27:51;;;;;;;23.10;7.72;;;;;;;4.93;83.82;101940.69;5022760;28;20367;-71
2021/12/12 00:30:17;;;;;;;18.05;7.60;;;;;;;4.94;83.85;101942.47;5024144;28;20032;-72
2021/12/12 00:32:42;;;;;;;25.08;8.07;;;;;;;4.95;83.73;101946.81;5023486;28;20109;-73
2021/12/12 00:35:12;;;;;;;30.27;8.85;;;;;;;4.94;83.75;101945.06;5024383;28;20021;-69
2021/12/12 00:37:38;;;;;;;35.20;8.45;;;;;;;4.94;83.91;101934.63;5024280;28;20104;-69
2021/12/12 00:40:32;;;;;;;34.33;8.32;;;;;;;4.94;83.71;101934.63;5028071;28;20100;-71
2021/12/12 00:43:01;;;;;;;28.23;8.95;;;;;;;4.97;83.81;101929.41;5024265;28;20112;-71
2021/12/12 00:45:27;;;;;;;19.60;8.75;;;;;;;4.98;83.81;101931.16;5049207;28;20501;-69
2021/12/12 00:47:53;;;;;;;25.17;7.95;;;;;;;4.97;83.86;101929.41;5044208;28;20025;-69
2021/12/12 00:50:27;;;;;;;31.35;8.25;;;;;;;4.98;83.79;101925.94;5028491;28;20124;-70
2021/12/12 00:52:53;;;;;;;20.25;7.60;;;;;;;5.02;83.78;101930.31;5008960;28;20442;-68
2021/12/12 00:55:19;;;;;;;27.83;7.97;;;;;;;5.01;83.77;101930.31;5027681;28;20017;-69
2021/12/12 00:57:50;;;;;;;22.40;8.05;;;;;;;5.05;83.74;101932.94;5028866;28;20044;-68
2021/12/12 01:00:17;;;;;;;24.98;8.02;;;;;;;5.08;83.73;101932.09;5036291;28;20075;-68
2021/12/12 01:02:43;;;;;;;24.52;7.30;;;;;;;5.10;83.53;101939.94;5049272;28;20037;-69
2021/12/12 01:05:11;;;;;;;20.25;7.82;;;;;;;5.11;83.27;101931.22;5046624;28;20395;-66
2021/12/12 01:07:40;;;;;;;25.50;9.15;;;;;;;5.11;83.54;101931.22;5007804;28;20060;-68
2021/12/12 01:10:15;;;;;;;28.27;7.78;;;;;;;5.10;83.53;101935.59;5008185;28;20038;-71
2021/12/12 01:12:40;;;;;;;25.52;7.50;;;;;;;5.10;83.48;101926.88;5020005;28;20113;-69
2021/12/12 01:15:20;;;;;;;26.27;8.73;;;;;;;5.12;83.54;101923.41;5028514;28;20101;-69
2021/12/12 01:17:49;;;;;;;26.33;7.38;;;;;;;5.08;83.84;101923.41;5027366;28;20033;-69
2021/12/12 01:20:17;;;;;;;24.25;8.32;;;;;;;5.13;83.68;101925.16;5009089;28;20109;-70
2021/12/12 01:22:43;;;;;;;30.55;8.57;;;;;;;5.13;83.73;101925.16;5006983;28;20042;-71
2021/12/12 01:25:27;;;;;;;24.58;7.93;;;;;;;5.12;83.96;101923.41;4990110;28;20547;-71
2021/12/12 01:27:53;;;;;;;23.92;7.72;;;;;;;5.16;83.93;101921.69;5007069;28;20042;-71
2021/12/12 01:30:19;;;;;;;23.85;7.63;;;;;;;5.13;83.88;101924.28;5026562;28;20032;-68
2021/12/12 01:32:47;;;;;;;24.50;8.45;;;;;;;5.16;83.80;101926.91;4992194;28;20087;-72
2021/12/12 01:35:15;;;;;;;21.33;7.65;;;;;;;5.12;83.98;101928.63;5025548;28;20568;-70
2021/12/12 01:37:50;;;;;;;22.10;7.15;;;;;;;5.17;84.08;101929.53;5008506;28;20107;-71
2021/12/12 01:40:23;;;;;;;18.10;7.47;;;;;;;5.14;84.29;101929.53;5027072;28;20029;-67
2021/12/12 01:43:00;;;;;;;24.52;8.05;;;;;;;5.16;84.40;101924.31;5027121;28;20025;-70
2021/12/12 01:45:28;;;;;;;18.67;7.88;;;;;;;5.13;84.73;101929.50;5008827;28;20507;-71
2021/12/12 01:47:58;;;;;;;21.80;8.55;;;;;;;5.12;85.04;101923.41;5009022;28;20030;-70
2021/12/12 01:50:33;;;;;;;29.02;8.30;;;;;;;5.12;85.19;101928.63;5025260;28;20026;-71
2021/12/12 01:53:00;;;;;;;30.67;8.85;;;;;;;5.08;85.39;101920.78;5026102;28;20025;-69
2021/12/12 01:55:40;;;;;;;22.10;7.25;;;;;;;5.08;85.71;101916.41;5026996;28;20033;-71
2021/12/12 01:58:13;;;;;;;18.85;7.97;;;;;;;5.08;85.91;101900.75;5026333;28;20091;-69
2021/12/12 02:00:45;;;;;;;27.13;8.00;;;;;;;5.06;86.02;101898.13;5026122;28;20037;-70
2021/12/12 02:03:13;;;;;;;17.67;7.10;;;;;;;5.06;86.19;101902.50;5027529;28;20487;-72
2021/12/12 02:05:39;;;;;;;22.63;7.95;;;;;;;5.07;86.33;101904.22;5025469;28;20044;-70
2021/12/12 02:08:11;;;;;;;23.52;7.60;;;;;;;5.08;86.44;101899.88;5026330;28;20052;-70
2021/12/12 02:10:42;;;;;;;24.45;8.93;;;;;;;5.04;86.93;101905.09;4991713;28;20113;-71
2021/12/12 02:13:11;;;;;;;17.45;8.63;;;;;;;5.05;86.73;101896.38;5009351;28;20368;-69
2021/12/12 02:15:38;;;;;;;;;;;;;;;5.07;86.79;101899.00;5025989;28;20078;-71
2021/12/12 02:18:10;;;;;;;23.13;8.50;;;;;;;5.04;86.93;101898.97;5025373;28;20322;-73
2021/12/12 02:20:43;;;;;;;24.55;9.43;;;;;;;5.06;86.93;101903.34;5025945;28;20502;-71
2021/12/12 02:37:03;;;;;;;15.75;8.48;;;;;;;5.17;87.12;101905.13;5025727;28;20083;-70
2021/12/12 02:39:28;;;;;;;17.40;9.02;;;;;;;5.23;87.04;101904.28;5025142;28;20571;-73
2021/12/12 02:41:57;;;;;;;16.55;8.25;;;;;;;5.24;86.97;101901.69;5025956;28;20096;-69
2021/12/12 02:44:27;;;;;;;22.02;9.23;;;;;;;5.25;87.09;101903.47;5026001;28;20025;-71
2021/12/12 02:46:58;;;;;;;20.45;8.85;;;;;;;5.25;87.01;101893.00;5025525;28;20395;-69
2021/12/12 02:49:40;;;;;;;21.77;8.57;;;;;;;5.30;87.06;101895.66;5025870;28;20460;-69
2021/12/12 02:52:12;;;;;;;21.67;8.27;;;;;;;5.33;87.02;101894.78;5024716;28;20056;-69
2021/12/12 02:54:37;;;;;;;21.75;9.07;;;;;;;5.35;87.22;101890.41;5026193;28;20075;-70
2021/12/12 02:57:03;;;;;;;19.58;8.43;;;;;;;5.31;87.30;101894.78;5025128;28;20017;-71
2021/12/12 02:59:29;;;;;;;17.42;9.13;;;;;;;5.30;87.38;101893.03;5008208;28;20438;-71
2021/12/12 03:02:02;;;;;;;22.67;8.68;;;;;;;5.29;87.55;101886.94;5025380;28;20083;-70
2021/12/12 03:04:28;;;;;;;19.40;9.50;;;;;;;5.36;87.45;101893.03;5024103;28;20035;-68
2021/12/12 03:06:55;;;;;;;22.40;9.57;;;;;;;5.35;87.44;101886.06;5007470;28;20045;-70
2021/12/12 03:09:25;;;;;;;27.77;10.23;;;;;;;5.40;87.20;101893.94;5024387;28;20068;-71
2021/12/12 03:11:56;;;;;;;21.40;10.55;;;;;;;5.33;87.34;101892.16;5026195;28;20377;-70
2021/12/12 03:14:22;;;;;;;22.35;10.00;;;;;;;5.36;87.30;101892.19;5025580;28;20040;-71
2021/12/12 03:16:48;;;;;;;18.33;9.07;;;;;;;5.36;87.31;101900.03;5024615;28;20121;-71
2021/12/12 03:19:14;;;;;;;17.00;11.13;;;;;;;5.29;87.55;101881.69;5008121;28;20029;-70
2021/12/12 03:21:42;;;;;;;24.67;11.85;;;;;;;5.30;87.59;101891.28;5026864;28;20026;-71
2021/12/12 03:24:19;;;;;;;21.73;11.40;;;;;;;5.34;87.55;101880.84;5024211;28;20029;-73
2021/12/12 03:26:47;;;;;;;22.70;11.18;;;;;;;5.34;87.54;101886.94;5025369;28;20030;-72
2021/12/12 03:29:13;;;;;;;26.40;12.02;;;;;;;5.35;87.42;101885.19;5037069;28;20040;-71
2021/12/12 03:31:44;;;;;;;26.08;13.32;;;;;;;5.34;87.30;101886.06;5044988;28;20424;-72
2021/12/12 03:34:13;;;;;;;25.35;14.30;;;;;;;5.29;87.46;101889.53;5035077;28;20153;-71
2021/12/12 03:36:39;;;;;;;21.95;12.73;;;;;;;5.37;87.48;101883.47;5025249;28;20133;-72
2021/12/12 03:39:09;;;;;;;27.52;14.38;;;;;;;5.27;87.72;101883.41;5023440;28;20121;-72
2021/12/12 03:41:35;;;;;;;24.17;14.30;;;;;;;5.35;87.67;101882.56;5024957;28;20130;-69
2021/12/12 03:44:05;;;;;;;33.47;15.07;;;;;;;5.30;87.89;101872.97;5022472;28;20025;-74
2021/12/12 03:46:31;;;;;;;25.85;14.82;;;;;;;5.40;87.50;101875.66;5025747;28;20033;-71
2021/12/12 03:48:57;;;;;;;29.65;15.82;;;;;;;5.35;87.51;101875.63;5024078;28;20030;-73
2021/12/12 03:51:25;;;;;;;27.00;15.93;;;;;;;5.33;88.03;101884.34;5025005;28;20033;-70
2021/12/12 03:53:51;;;;;;;31.23;16.52;;;;;;;5.39;87.64;101892.22;5023658;28;20057;-71
2021/12/12 03:56:16;;;;;;;32.85;16.00;;;;;;;5.42;87.71;101892.22;5024779;28;20018;-70
2021/12/12 03:58:43;;;;;;;25.63;15.48;;;;;;;5.47;87.47;101893.09;5025273;28;20519;-72
2021/12/12 04:01:17;;;;;;;34.58;16.90;;;;;;;5.47;87.48;101889.59;5024092;28;20495;-69
2021/12/12 04:03:43;;;;;;;29.30;17.63;;;;;;;5.44;87.63;101890.47;5025070;28;20025;-71
2021/12/12 04:06:11;;;;;;;38.35;17.45;;;;;;;5.41;87.84;101893.06;5037846;28;20038;-71
2021/12/12 04:08:43;;;;;;;32.42;17.75;;;;;;;5.43;88.08;101899.19;5043868;28;20120;-71
2021/12/12 04:11:19;;;;;;;26.48;16.75;;;;;;;5.53;87.78;101894.88;5022986;28;20487;-72
2021/12/12 04:13:46;;;;;;;29.50;15.65;;;;;;;5.53;87.84;101892.25;4986790;28;20032;-69
2021/12/12 04:16:11;;;;;;;32.03;17.48;;;;;;;5.55;87.74;101903.59;5016190;28;20488;-72
2021/12/12 04:18:37;;;;;;;28.73;19.85;;;;;;;5.52;88.21;101900.97;5025032;28;20128;-70
2021/12/12 04:21:03;;;;;;;36.75;18.33;;;;;;;5.55;88.06;101893.13;5015350;28;20404;-71
2021/12/12 04:23:29;;;;;;;33.47;18.20;;;;;;;5.59;88.12;101888.78;5015483;28;20034;-72
2021/12/12 04:26:18;;;;;;;34.72;18.40;;;;;;;5.62;87.90;101891.41;5018565;28;20372;-71
2021/12/12 04:28:44;;;;;;;32.83;20.80;;;;;;;5.62;87.81;101889.69;5021422;28;20033;-71
2021/12/12 04:31:10;;;;;;;34.25;19.67;;;;;;;5.65;87.72;101888.81;5018276;28;20432;-71
2021/12/12 04:33:35;;;;;;;29.20;18.48;;;;;;;5.67;87.80;101880.13;5013095;28;20193;-72
2021/12/12 04:36:01;;;;;;;37.63;20.30;;;;;;;5.68;87.54;101894.94;5013831;28;20448;-74
2021/12/12 04:38:26;;;;;;;35.00;19.20;;;;;;;5.69;87.71;101898.44;5006449;28;20029;-71
2021/12/12 04:40:52;;;;;;;32.60;18.52;;;;;;;5.65;87.91;101894.03;5029399;28;20025;-71
2021/12/12 04:43:17;;;;;;;37.40;21.25;;;;;;;5.60;88.11;101888.78;5007733;28;20026;-72
2021/12/12 04:45:51;;;;;;;42.38;21.00;;;;;;;5.68;88.10;101884.47;5011636;28;20503;-71
2021/12/12 04:51:11;;;;;;;42.08;23.55;;;;;;;5.64;88.25;101885.34;5006973;28;20056;-71
2021/12/12 04:53:43;;;;;;;47.40;24.70;;;;;;;5.71;88.25;101887.94;5017589;28;20157;-73
2021/12/12 04:56:30;;;;;;;47.67;23.10;;;;;;;5.79;88.02;101894.97;4994925;28;20029;-73
2021/12/12 04:59:06;;;;;;;50.40;25.27;;;;;;;5.78;88.03;101898.44;5026502;28;20027;-72
2021/12/12 05:01:45;;;;;;;48.33;25.15;;;;;;;5.86;87.97;101892.34;5035861;28;20060;-72
2021/12/12 05:04:20;;;;;;;54.13;26.83;;;;;;;5.80;88.13;101904.56;5011237;28;20025;-71
2021/12/12 05:07:03;;;;;;;47.78;24.88;;;;;;;5.79;88.35;101910.69;4999636;28;20372;-73
2021/12/12 05:09:53;;;;;;;68.80;30.10;;;;;;;5.74;88.72;101907.16;5006479;28;20049;-71
2021/12/12 05:12:44;;;;;;;60.33;26.30;;;;;;;5.80;88.80;101912.41;5004223;28;20030;-70
2021/12/12 05:15:16;;;;;;;53.38;27.35;;;;;;;5.85;88.69;101909.81;5013073;28;20103;-72
2021/12/12 05:17:49;;;;;;;49.35;24.70;;;;;;;5.89;88.51;101911.56;4995874;28;20029;-75
2021/12/12 05:20:32;;;;;;;64.65;29.23;;;;;;;5.85;88.56;101915.06;5002077;28;20025;-71
2021/12/12 05:23:01;;;;;;;55.38;25.85;;;;;;;5.85;88.70;101920.28;5027849;28;20447;-70
2021/12/12 05:25:29;;;;;;;54.57;26.33;;;;;;;5.93;88.71;101917.69;5000884;28;20083;-71
2021/12/12 05:27:58;;;;;;;65.35;29.20;;;;;;;5.93;88.86;101926.41;5016201;28;20037;-70
2021/12/12 05:30:27;;;;;;;57.30;25.92;;;;;;;6.02;88.80;101912.47;5009157;28;20488;-71
2021/12/12 05:32:53;;;;;;;52.85;25.98;;;;;;;6.04;88.41;101916.00;5009149;28;20037;-70
2021/12/12 05:35:22;;;;;;;61.67;28.27;;;;;;;6.09;88.46;101917.75;5024591;28;20030;-72
2021/12/12 05:37:49;;;;;;;55.95;27.75;;;;;;;6.10;88.54;101920.38;5011836;28;20129;-71
2021/12/12 05:40:15;;;;;;;63.15;27.92;;;;;;;6.12;88.54;101929.13;5014032;28;20037;-70
2021/12/12 05:42:41;;;;;;;65.63;28.30;;;;;;;6.14;88.43;101916.03;5010644;28;20034;-71
2021/12/12 05:45:08;;;;;;;59.17;28.75;;;;;;;6.13;88.62;101919.50;5012492;28;20122;-73
2021/12/12 05:47:34;;;;;;;70.95;29.90;;;;;;;6.15;88.66;101923.88;5016265;28;20082;-70
2021/12/12 05:50:01;;;;;;;72.18;30.50;;;;;;;6.19;88.78;101925.63;5025979;28;20586;-72
2021/12/12 05:52:26;;;;;;;69.55;31.23;;;;;;;6.23;88.60;101925.66;5027547;28;20022;-72
2021/12/12 05:54:52;;;;;;;78.43;33.85;;;;;;;6.21;88.60;101927.38;5012450;28;20028;-71
2021/12/12 05:57:25;;;;;;;80.63;34.53;;;;;;;6.20;88.78;101929.09;5032712;28;20448;-70
2021/12/12 05:59:52;;;;;;;83.65;34.13;;;;;;;6.21;88.87;101930.88;5027742;28;20025;-72
2021/12/12 06:02:18;;;;;;;73.60;33.28;;;;;;;6.25;88.80;101931.72;5027573;28;20021;-70
2021/12/12 06:04:43;;;;;;;70.60;30.67;;;;;;;6.26;88.89;101928.28;5010731;28;20036;-71
2021/12/12 06:07:15;;;;;;;74.50;31.98;;;;;;;6.30;88.87;101933.47;5026061;28;20033;-70
2021/12/12 06:09:40;;;;;;;64.28;27.35;;;;;;;6.32;88.66;101934.38;5027477;28;20037;-71
2021/12/12 06:12:06;;;;;;;67.15;32.80;;;;;;;6.39;88.57;101943.13;5009743;28;20063;-71
2021/12/12 06:14:32;;;;;;;78.70;33.63;;;;;;;6.39;88.40;101939.63;5005586;28;20049;-72
2021/12/12 06:17:02;;;;;;;71.20;29.02;;;;;;;6.36;88.68;101942.22;5009227;28;20025;-72
2021/12/12 06:19:27;;;;;;;;;;;;;;;6.37;88.78;101938.72;5024372;28;20029;-68
2021/12/12 06:21:55;;;;;;;83.93;33.90;;;;;;;6.40;88.81;101946.59;5005969;28;19913;-72
2021/12/12 06:24:22;;;;;;;87.68;36.30;;;;;;;6.36;88.96;101947.47;5023664;28;20026;-69
2021/12/12 06:26:47;;;;;;;82.82;34.63;;;;;;;6.36;89.04;101944.84;5026291;28;20028;-70
2021/12/12 06:29:13;;;;;;;77.57;34.13;;;;;;;6.45;88.96;101948.34;5027785;28;20396;-70
2021/12/12 06:31:42;;;;;;;80.60;31.27;;;;;;;6.45;89.07;101956.19;5009273;28;20036;-70
2021/12/12 06:34:09;;;;;;;84.78;32.65;;;;;;;6.44;89.03;101945.72;5025923;28;20043;-71
2021/12/12 06:36:34;;;;;;;81.90;32.47;;;;;;;6.51;89.06;101947.50;5024616;28;20117;-70
2021/12/12 06:39:00;;;;;;;83.95;32.78;;;;;;;6.56;88.93;101950.97;5022449;28;20113;-71
2021/12/12 06:41:26;;;;;;;92.93;35.50;;;;;;;6.55;89.10;101954.47;5025247;28;20108;-69
2021/12/12 06:43:52;;;;;;;89.93;32.55;;;;;;;6.62;89.06;101955.34;5009790;28;20025;-70
2021/12/12 06:46:18;;;;;;;96.93;33.75;;;;;;;6.66;89.22;101951.88;5022403;28;20550;-69
2021/12/12 06:48:44;;;;;;;83.47;32.90;;;;;;;6.73;89.18;101950.13;5006527;28;20048;-69
2021/12/12 06:51:10;;;;;;;79.80;31.33;;;;;;;6.80;88.69;101953.59;4996697;28;20023;-69
2021/12/12 06:53:39;;;;;;;82.18;29.98;;;;;;;6.78;88.80;101953.63;5009176;28;20116;-70
2021/12/12 06:56:05;;;;;;;85.93;31.25;;;;;;;6.87;88.88;101958.00;4992462;28;20025;-72
2021/12/12 06:58:31;;;;;;;89.65;33.33;;;;;;;6.89;88.75;101948.38;5020180;28;20076;-69
2021/12/12 07:01:05;;;;;;;78.78;30.95;;;;;;;6.90;88.80;101950.13;5010871;28;20022;-62
2021/12/12 07:03:31;;;;;;;75.22;28.73;;;;;;;6.92;88.81;101960.59;5026994;28;20096;-71
2021/12/12 07:05:56;;;;;;;92.28;34.13;;;;;;;6.89;88.98;101958.00;5007663;28;20049;-70
2021/12/12 07:08:22;;;;;;;76.78;30.00;;;;;;;6.91;88.91;101967.59;5005364;28;20033;-71
2021/12/12 07:10:48;;;;;;;84.57;31.67;;;;;;;6.93;88.88;101960.59;5018810;28;20025;-70
2021/12/12 07:13:14;;;;;;;88.88;31.05;;;;;;;6.94;88.98;101961.47;5018365;28;20025;-70
2021/12/12 07:15:49;;;;;;;79.93;27.42;;;;;;;6.98;88.85;101968.44;5001796;28;20399;-70
2021/12/12 07:18:17;;;;;;;87.38;30.83;;;;;;;7.00;88.69;101971.94;5014188;28;20105;-67
2021/12/12 07:20:43;;;;;;;80.38;28.35;;;;;;;7.01;88.73;101976.31;5018982;28;20041;-70
2021/12/12 07:23:11;;;;;;;100.68;32.88;;;;;;;7.00;88.64;101978.94;5007455;28;20048;-71
2021/12/12 07:25:37;;;;;;;88.60;29.40;;;;;;;7.02;88.80;101975.47;5018806;28;20072;-69
2021/12/12 07:28:03;;;;;;;119.88;37.17;;;;;;;6.99;89.05;101975.47;5008250;28;20415;-71
2021/12/12 07:30:29;;;;;;;107.85;35.80;;;;;;;7.07;88.99;101981.56;5026338;28;20095;-71
2021/12/12 07:32:55;;;;;;;76.22;29.55;;;;;;;7.14;88.70;101989.41;5025477;28;20037;-70
2021/12/12 07:35:20;;;;;;;85.32;30.10;;;;;;;7.13;88.76;101983.28;5026459;28;20103;-69
2021/12/12 07:37:46;;;;;;;82.15;29.58;;;;;;;7.15;88.90;101980.66;5024871;28;20185;-69
2021/12/12 07:40:12;;;;;;;93.22;28.75;;;;;;;7.17;88.77;101992.88;5025652;28;20476;-71
2021/12/12 07:42:38;;;;;;;82.70;31.17;;;;;;;7.20;88.53;101990.28;5026068;28;20261;-70
2021/12/12 07:45:05;;;;;;;100.97;32.35;;;;;;;7.22;88.66;101985.03;5025629;28;20049;-69
2021/12/12 07:47:31;;;;;;;89.50;32.97;;;;;;;7.26;88.69;101985.91;5025648;28;20451;-71
2021/12/12 07:49:56;;;;;;;94.43;31.20;;;;;;;7.27;88.65;101985.91;5025676;28;20036;-71
2021/12/12 07:52:24;;;;;;;100.68;36.25;;;;;;;7.19;88.72;101992.88;5025196;28;20026;-70
2021/12/12 07:54:50;;;;;;;93.43;30.90;;;;;;;7.26;88.75;101996.41;5024365;28;20029;-73
2021/12/12 07:57:17;;;;;;;81.32;27.83;;;;;;;7.21;88.74;102004.25;5024949;28;20021;-70
2021/12/12 07:59:44;;;;;;;98.43;33.30;;;;;;;7.24;89.03;102006.00;5022808;28;20056;-71
2021/12/12 08:02:11;;;;;;;80.28;30.48;;;;;;;7.25;88.87;102003.38;5006775;28;20040;-70
2021/12/12 08:04:37;;;;;;;105.95;34.03;;;;;;;7.29;89.00;102009.50;5007326;28;20103;-72
2021/12/12 08:07:04;;;;;;;102.85;34.72;;;;;;;7.28;88.92;102011.25;5006102;28;20029;-71
2021/12/12 08:09:29;;;;;;;80.43;28.95;;;;;;;7.33;88.98;102020.00;5006487;28;20033;-70
2021/12/12 08:11:55;;;;;;;80.43;27.58;;;;;;;7.36;88.63;102021.72;5005777;28;20018;-69
2021/12/12 08:14:26;;;;;;;91.20;31.05;;;;;;;7.39;88.81;102019.09;5024668;28;20526;-71
2021/12/12 08:16:53;;;;;;;92.63;32.78;;;;;;;7.38;88.71;102025.22;5024212;28;20091;-78
2021/12/12 08:19:20;;;;;;;125.55;37.40;;;;;;;7.37;89.11;102025.22;5002020;28;20095;-72
2021/12/12 08:21:47;;;;;;;97.15;32.25;;;;;;;7.43;89.00;102033.94;5024285;28;20097;-72
2021/12/12 08:24:13;;;;;;;102.25;33.75;;;;;;;7.45;88.90;102036.56;5006938;28;20515;-74
2021/12/12 08:26:41;;;;;;;97.53;31.38;;;;;;;7.48;88.91;102033.94;5007135;28;20021;-72
2021/12/12 08:29:09;;;;;;;91.68;31.42;;;;;;;7.51;88.84;102039.19;5024332;28;20026;-71
2021/12/12 08:31:35;;;;;;;109.28;34.20;;;;;;;7.53;88.78;102039.19;5023407;28;20026;-68
2021/12/12 08:34:03;;;;;;;93.93;31.02;;;;;;;7.55;88.83;102043.53;5005372;28;20029;-69
2021/12/12 08:36:30;;;;;;;112.43;34.05;;;;;;;7.53;88.82;102037.41;5006071;28;20021;-70
2021/12/12 08:38:56;;;;;;;97.85;34.45;;;;;;;7.51;88.82;102047.06;5006663;28;20021;-70
2021/12/12 08:41:21;;;;;;;77.32;30.73;;;;;;;7.58;88.70;102048.78;5007805;28;20037;-69
2021/12/12 08:43:47;;;;;;;90.05;31.92;;;;;;;7.59;88.71;102045.28;5023997;28;20048;-71
2021/12/12 08:46:14;;;;;;;80.70;29.80;;;;;;;7.61;88.99;102049.66;5006857;28;20539;-72
2021/12/12 08:48:43;;;;;;;79.10;29.75;;;;;;;7.56;88.96;102050.53;5023931;28;20080;-70
2021/12/12 08:51:17;;;;;;;79.82;28.17;;;;;;;7.61;88.87;102047.03;5020637;28;20495;-73
2021/12/12 08:53:45;;;;;;;92.80;30.80;;;;;;;7.62;88.96;102054.03;5025126;28;20056;-74
2021/12/12 08:56:18;;;;;;;81.00;29.02;;;;;;;7.64;88.89;102055.75;5024759;28;20079;-76
2021/12/12 08:58:44;;;;;;;71.15;26.73;;;;;;;7.70;88.93;102054.88;5021916;28;20029;-74
2021/12/12 09:01:13;;;;;;;66.72;25.23;;;;;;;7.74;88.95;102067.13;5027666;28;20013;-73
2021/12/12 09:04:00;;;;;;;64.78;26.17;;;;;;;7.74;89.02;102061.88;5008549;28;20055;-69
2021/12/12 09:06:29;;;;;;;55.75;23.88;;;;;;;7.79;88.87;102074.97;5027726;28;20053;-69
2021/12/12 09:09:04;;;;;;;;;;;;;;;7.84;88.30;102075.84;5028678;28;20044;-68
2021/12/12 09:12:11;;;;;;;52.17;22.98;;;;;;;7.89;88.21;102075.84;5028580;28;19936;-70
2021/12/12 09:14:41;;;;;;;47.33;21.67;;;;;;;7.95;88.21;102075.81;4966178;28;20101;-70
2021/12/12 09:17:28;;;;;;;49.25;22.10;;;;;;;7.99;87.88;102079.28;4999658;28;20041;-70
2021/12/12 09:19:59;;;;;;;41.20;19.50;;;;;;;8.03;87.87;102089.78;5028086;28;20025;-69
2021/12/12 09:22:33;;;;;;;42.78;20.60;;;;;;;8.07;88.17;102086.25;5027484;28;20104;-70
2021/12/12 09:24:58;;;;;;;36.53;19.05;;;;;;;8.12;87.78;102086.25;5028185;28;20132;-78
2021/12/12 09:27:32;;;;;;;44.03;20.50;;;;;;;8.08;88.32;102095.03;5027727;28;20481;-71
2021/12/12 09:30:10;;;;;;;40.42;19.38;;;;;;;8.16;87.79;102095.84;5009819;28;20041;-69
2021/12/12 09:32:48;;;;;;;39.03;18.35;;;;;;;8.22;87.74;102106.34;5023539;28;20021;-70
2021/12/12 09:35:24;;;;;;;34.08;15.82;;;;;;;8.24;87.86;102101.09;4991447;28;20387;-70
2021/12/12 09:37:58;;;;;;;30.35;16.75;;;;;;;8.34;87.55;102108.06;5008975;28;20034;-70
2021/12/12 09:40:35;;;;;;;32.13;16.85;;;;;;;8.40;87.40;102099.28;5009800;28;20017;-69
2021/12/12 09:43:11;;;;;;;30.55;15.55;;;;;;;8.39;87.51;102105.41;5027040;28;20033;-63
2021/12/12 09:45:37;;;;;;;30.90;16.13;;;;;;;8.39;87.55;102104.53;5009899;28;20129;-67
2021/12/12 09:51:27;;;;;;;27.85;15.90;;;;;;;8.42;87.44;102105.41;5025622;28;20102;-70
2021/12/12 09:54:29;;;;;;;30.48;13.70;;;;;;;8.46;87.20;102116.78;5026039;28;20068;-68
2021/12/12 09:57:11;;;;;;;24.77;13.50;;;;;;;8.44;87.49;102103.66;4989329;28;20072;-69
2021/12/12 09:59:42;;;;;;;28.90;16.13;;;;;;;8.44;87.48;102108.91;5005838;28;20500;-71
2021/12/12 10:02:13;;;;;;;27.90;15.52;;;;;;;8.44;87.42;102103.66;5006114;28;20405;-69
2021/12/12 10:05:12;;;;;;;26.27;14.00;;;;;;;8.46;87.49;102095.75;5007769;28;20125;-70
2021/12/12 10:08:02;;;;;;;23.33;13.52;;;;;;;8.50;87.67;102099.22;4985494;28;20527;-69
2021/12/12 10:10:33;;;;;;;29.92;14.13;;;;;;;8.45;87.69;102105.38;5006768;28;20487;-68
2021/12/12 10:13:07;;;;;;;28.13;15.63;;;;;;;8.48;87.34;102104.50;4988359;28;20029;-68
2021/12/12 10:15:41;;;;;;;25.40;14.75;;;;;;;8.53;87.53;102102.72;4989719;28;20030;-72
2021/12/12 10:18:21;;;;;;;24.38;13.35;;;;;;;8.51;87.60;102107.09;4988893;28;20022;-70
2021/12/12 10:20:57;;;;;;;19.95;13.95;;;;;;;8.55;87.46;102116.75;5007022;28;20426;-71
2021/12/12 10:23:29;;;;;;;18.02;12.18;;;;;;;8.55;87.25;102108.88;5007390;28;20053;-69
2021/12/12 10:26:02;;;;;;;24.60;15.30;;;;;;;8.51;87.15;102111.47;5007012;28;20029;-69
2021/12/12 10:28:35;;;;;;;22.52;14.27;;;;;;;8.52;87.71;102116.72;4990022;28;20049;-69
2021/12/12 10:31:14;;;;;;;22.05;13.90;;;;;;;8.52;87.78;102116.72;4988809;28;20049;-70
2021/12/12 10:33:46;;;;;;;21.60;13.65;;;;;;;8.55;87.72;102115.91;4990031;28;20337;-72
2021/12/12 10:36:19;;;;;;;22.13;15.00;;;;;;;8.55;87.75;102108.88;4989936;28;20441;-70
2021/12/12 10:39:04;;;;;;;23.17;14.57;;;;;;;8.58;87.44;102111.47;4988739;28;20026;-63
2021/12/12 10:41:39;;;;;;;26.95;14.82;;;;;;;8.59;87.66;102115.88;4987950;28;20495;-70
2021/12/12 10:44:15;;;;;;;20.77;14.20;;;;;;;8.62;88.07;102116.72;5008187;28;20124;-70
2021/12/12 10:47:09;;;;;;;26.00;14.45;;;;;;;8.62;88.10;102117.59;5022057;28;20025;-69
2021/12/12 10:49:38;;;;;;;24.20;13.57;;;;;;;8.66;87.70;102116.69;5006718;28;20041;-71
2021/12/12 10:52:08;;;;;;;22.10;14.15;;;;;;;8.72;87.60;102118.41;4986843;28;20046;-68
2021/12/12 10:54:48;;;;;;;24.77;14.48;;;;;;;8.77;87.48;102115.78;5007029;28;20073;-69
2021/12/12 10:57:17;;;;;;;22.88;14.95;;;;;;;8.79;87.31;102112.25;5009262;28;20030;-68
2021/12/12 10:59:46;;;;;;;19.77;13.52;;;;;;;8.82;87.93;102108.75;5025004;28;20250;-71
2021/12/12 11:02:14;;;;;;;23.73;14.93;;;;;;;8.76;87.77;102109.63;5004214;28;20042;-70
2021/12/12 11:04:49;;;;;;;23.10;14.55;;;;;;;8.80;87.73;102110.50;4989044;28;20025;-70
2021/12/12 11:07:21;;;;;;;22.30;14.25;;;;;;;8.77;87.49;102111.41;5002198;28;20505;-68
2021/12/12 11:09:54;;;;;;;23.70;14.57;;;;;;;8.82;87.70;102116.63;5045478;28;20127;-69
2021/12/12 11:12:44;;;;;;;23.00;14.05;;;;;;;8.88;87.85;102116.56;5026046;28;20045;-71
2021/12/12 11:15:29;;;;;;;19.52;13.15;;;;;;;8.95;87.05;102120.03;5013731;28;20264;-69
2021/12/12 11:17:59;;;;;;;18.50;12.68;;;;;;;8.96;87.07;102122.66;5043938;28;20020;-69
2021/12/12 11:20:31;;;;;;;19.75;13.20;;;;;;;8.91;87.60;102115.69;5045328;28;20055;-69
2021/12/12 11:23:00;;;;;;;19.67;12.23;;;;;;;8.94;87.54;102124.41;5034756;28;20025;-69
2021/12/12 11:25:44;;;;;;;26.67;13.00;;;;;;;8.94;87.50;102123.56;5024794;28;20029;-69
2021/12/12 11:28:36;;;;;;;13.23;10.13;;;;;;;9.08;87.38;102131.34;5015463;28;20155;-67
2021/12/12 11:31:24;;;;;;;13.82;9.77;;;;;;;9.14;87.24;102127.78;5044579;28;20045;-69
2021/12/12 11:33:51;;;;;;;12.07;9.88;;;;;;;9.10;86.78;102130.44;5011709;28;20021;-69
2021/12/12 11:36:23;;;;;;;14.00;10.27;;;;;;;9.10;86.80;102130.44;5006204;28;20044;-69
2021/12/12 11:38:53;;;;;;;12.25;8.35;;;;;;;9.13;87.33;102129.56;5035019;28;20032;-70
2021/12/12 11:41:26;;;;;;;13.88;8.88;;;;;;;9.22;86.73;102144.41;5026886;28;20029;-69
2021/12/12 11:44:01;;;;;;;10.98;8.10;;;;;;;9.28;86.77;102131.22;5011903;28;20121;-68
2021/12/12 11:46:38;;;;;;;11.48;8.15;;;;;;;9.32;87.03;102139.94;5024436;28;20041;-71
2021/12/12 11:49:11;;;;;;;8.07;7.28;;;;;;;9.38;86.86;102145.16;5031020;28;20080;-69
2021/12/12 11:51:44;;;;;;;10.05;6.88;;;;;;;9.48;86.63;102143.31;5004426;28;20056;-69
2021/12/12 11:54:33;;;;;;;7.65;6.15;;;;;;;9.61;86.15;102131.78;4997102;28;20024;-71